Time;durP1;ratioP1;P1;durP2;ratioP2;P2;SDS_P1;SDS_P2;PMS_P1;PMS_P2;Temp;Humidity;BMP_temperature;BMP_pressure;BME280_temperature;BME280_humidity;BME280_pressure;Samples;Min_cycle;Max_cycle;Signal;HPM_P1;HPM_P2
2021/03/15 00:01:49;;;;;;;42.35;18.50;;;7.40;93.50;;;;;;4994290;28;20166;-68
2021/03/15 00:04:15;;;;;;;14.25;6.88;;;7.50;93.60;;;;;;4993535;28;20030;-69
2021/03/15 00:06:41;;;;;;;8.45;3.50;;;7.50;93.60;;;;;;4994873;28;20022;-68
2021/03/15 00:09:07;;;;;;;8.43;3.88;;;7.60;93.60;;;;;;4994366;28;20023;-69
2021/03/15 00:11:32;;;;;;;6.50;2.65;;;7.60;93.60;;;;;;4994429;28;20150;-69
2021/03/15 00:13:58;;;;;;;7.00;4.45;;;7.60;93.70;;;;;;4994754;28;20040;-70
2021/03/15 00:16:23;;;;;;;6.88;4.20;;;7.70;93.70;;;;;;4993888;28;20026;-69
2021/03/15 00:18:49;;;;;;;10.45;5.82;;;7.70;93.70;;;;;;4994324;28;20058;-69
2021/03/15 00:21:14;;;;;;;10.68;5.05;;;7.70;93.70;;;;;;4993047;28;20026;-71
2021/03/15 00:23:40;;;;;;;10.77;4.13;;;7.60;93.70;;;;;;4992637;28;20045;-70
2021/03/15 00:26:05;;;;;;;7.90;3.63;;;7.60;93.70;;;;;;4995162;28;20359;-69
2021/03/15 00:28:31;;;;;;;17.40;4.20;;;7.60;93.80;;;;;;4994240;28;20467;-70
2021/03/15 00:30:56;;;;;;;8.82;4.18;;;7.60;93.80;;;;;;4993872;28;20033;-68
2021/03/15 00:33:23;;;;;;;12.52;4.05;;;7.60;93.90;;;;;;4994133;28;20043;-70
2021/03/15 00:35:49;;;;;;;7.97;3.80;;;7.50;93.90;;;;;;4994372;28;20085;-70
2021/03/15 00:38:15;;;;;;;7.47;5.68;;;7.50;94.00;;;;;;4993473;28;20042;-70
2021/03/15 00:40:41;;;;;;;4.85;2.42;;;7.40;93.90;;;;;;4994298;28;20130;-70
2021/03/15 00:43:06;;;;;;;5.93;2.90;;;7.30;94.00;;;;;;4994253;28;20022;-70
2021/03/15 00:45:32;;;;;;;8.60;3.38;;;7.30;93.90;;;;;;4992207;28;20027;-70
2021/03/15 00:47:57;;;;;;;9.82;3.35;;;7.30;93.90;;;;;;4992938;28;20022;-70
2021/03/15 00:50:32;;;;;;;5.78;3.20;;;7.30;93.90;;;;;;4993822;28;20030;-70
2021/03/15 00:52:58;;;;;;;5.45;3.13;;;7.30;93.90;;;;;;4993465;28;20022;-70
2021/03/15 00:55:25;;;;;;;4.35;2.97;;;7.30;94.00;;;;;;4992758;28;20034;-70
2021/03/15 00:57:51;;;;;;;7.60;3.50;;;7.20;94.10;;;;;;4992017;28;20073;-70
2021/03/15 01:00:23;;;;;;;6.80;3.55;;;7.20;94.10;;;;;;4992400;28;20113;-70
2021/03/15 01:02:49;;;;;;;;;;;7.20;94.10;;;;;;4994363;28;20022;-70
2021/03/15 01:05:16;;;;;;;7.53;3.60;;;7.30;94.20;;;;;;4992988;28;19964;-69
2021/03/15 01:07:41;;;;;;;5.97;3.00;;;7.20;94.10;;;;;;4993793;28;20030;-68
2021/03/15 01:10:10;;;;;;;6.68;2.90;;;7.20;94.10;;;;;;4993815;28;20364;-70
2021/03/15 01:12:36;;;;;;;4.75;3.10;;;7.20;94.20;;;;;;4991728;28;20026;-70
2021/03/15 01:15:04;;;;;;;5.47;2.97;;;7.20;94.30;;;;;;4993703;28;20479;-70
2021/03/15 01:17:30;;;;;;;5.53;2.85;;;7.30;94.30;;;;;;4993142;28;20498;-71
2021/03/15 01:19:56;;;;;;;5.35;2.55;;;7.30;94.30;;;;;;4992915;28;20054;-69
2021/03/15 01:22:22;;;;;;;5.70;3.05;;;7.30;94.20;;;;;;4991920;28;20549;-70
2021/03/15 01:24:47;;;;;;;3.92;2.67;;;7.30;94.20;;;;;;4992132;28;20023;-70
2021/03/15 01:27:13;;;;;;;8.45;3.28;;;7.30;94.20;;;;;;4992479;28;20022;-69
2021/03/15 01:29:38;;;;;;;5.63;3.90;;;7.30;94.30;;;;;;4993033;28;20053;-69
2021/03/15 01:32:04;;;;;;;7.90;2.90;;;7.40;94.20;;;;;;4993220;28;20018;-70
2021/03/15 01:34:29;;;;;;;6.40;3.30;;;7.30;94.20;;;;;;4991244;28;20034;-69
2021/03/15 01:36:55;;;;;;;5.38;3.25;;;7.30;94.20;;;;;;4993309;28;20022;-69
2021/03/15 01:39:20;;;;;;;3.97;3.05;;;7.40;94.30;;;;;;4993099;28;20027;-70
2021/03/15 01:41:46;;;;;;;7.40;3.85;;;7.40;94.40;;;;;;4992355;28;20022;-70
2021/03/15 01:44:12;;;;;;;5.90;3.20;;;7.40;94.30;;;;;;4992407;28;20022;-69
2021/03/15 01:46:37;;;;;;;4.43;2.50;;;7.40;94.30;;;;;;4993176;28;20398;-70
2021/03/15 01:49:03;;;;;;;3.60;2.65;;;7.40;94.30;;;;;;4992490;28;20018;-69
2021/03/15 01:51:28;;;;;;;3.83;2.58;;;7.50;94.30;;;;;;4992595;28;20104;-70
2021/03/15 01:53:54;;;;;;;4.95;2.85;;;7.40;94.20;;;;;;4992818;28;20070;-69
2021/03/15 01:56:20;;;;;;;7.07;2.72;;;7.40;94.20;;;;;;4992047;28;20042;-70
2021/03/15 01:58:46;;;;;;;5.85;3.05;;;7.40;94.30;;;;;;4991870;28;20021;-70
2021/03/15 02:01:13;;;;;;;4.72;2.45;;;7.50;94.30;;;;;;4990836;28;20022;-69
2021/03/15 02:03:39;;;;;;;7.13;3.20;;;7.40;94.20;;;;;;4992830;28;20121;-70
2021/03/15 02:06:05;;;;;;;4.80;2.70;;;7.40;94.20;;;;;;4993173;28;20463;-70
2021/03/15 02:08:30;;;;;;;6.10;3.35;;;7.50;94.30;;;;;;4990857;28;20068;-69
2021/03/15 02:10:56;;;;;;;5.15;2.53;;;7.40;94.20;;;;;;4992893;28;20046;-69
2021/03/15 02:13:48;;;;;;;6.65;3.05;;;7.40;94.30;;;;;;4992465;28;20023;-69
2021/03/15 02:16:36;;;;;;;5.75;3.17;;;7.40;94.30;;;;;;4992254;28;20035;-69
2021/03/15 02:19:35;;;;;;;5.75;3.22;;;7.40;94.20;;;;;;4992858;28;20058;-69
2021/03/15 02:22:26;;;;;;;7.80;2.83;;;7.30;94.30;;;;;;4991754;28;20038;-69
2021/03/15 02:25:31;;;;;;;4.37;2.50;;;7.20;94.30;;;;;;4991422;28;20034;-69
2021/03/15 02:28:30;;;;;;;5.72;2.70;;;7.20;94.50;;;;;;4992751;28;20035;-69
2021/03/15 02:31:33;;;;;;;6.80;3.10;;;7.20;94.60;;;;;;4992266;28;20105;-70
2021/03/15 02:34:14;;;;;;;6.03;2.90;;;7.20;94.60;;;;;;4992626;28;20030;-70
2021/03/15 02:36:43;;;;;;;5.00;2.90;;;7.30;94.60;;;;;;4992109;28;20030;-70
2021/03/15 02:39:12;;;;;;;3.08;2.78;;;7.30;94.50;;;;;;4992644;28;20490;-69
2021/03/15 02:41:40;;;;;;;4.65;2.65;;;7.20;94.40;;;;;;4992671;28;20022;-69
2021/03/15 02:44:08;;;;;;;4.32;2.65;;;7.20;94.40;;;;;;4995901;28;20031;-70
2021/03/15 02:46:36;;;;;;;3.85;2.58;;;7.20;94.80;;;;;;4996617;28;20459;-70
2021/03/15 02:49:06;;;;;;;2.67;2.10;;;7.20;94.50;;;;;;4995098;28;20018;-70
2021/03/15 02:51:35;;;;;;;3.20;2.08;;;7.20;94.50;;;;;;4995462;28;20030;-70
2021/03/15 02:54:02;;;;;;;3.17;2.05;;;7.10;94.30;;;;;;4996359;28;20060;-69
2021/03/15 02:56:31;;;;;;;3.33;2.42;;;7.10;94.30;;;;;;4996123;28;20049;-71
2021/03/15 02:58:59;;;;;;;4.18;2.10;;;7.10;94.40;;;;;;4995705;28;20049;-70
2021/03/15 03:01:25;;;;;;;5.15;2.47;;;7.10;94.30;;;;;;4995493;28;20042;-70
2021/03/15 03:03:53;;;;;;;3.92;1.85;;;7.10;94.40;;;;;;4996158;28;20080;-69
2021/03/15 03:06:21;;;;;;;3.08;1.80;;;7.20;94.40;;;;;;4995261;28;20026;-70
2021/03/15 03:08:50;;;;;;;3.15;1.88;;;7.10;94.30;;;;;;4996128;28;20088;-69
2021/03/15 03:11:17;;;;;;;2.35;1.85;;;7.10;94.20;;;;;;4995760;28;20027;-69
2021/03/15 03:13:44;;;;;;;4.28;2.20;;;7.10;94.30;;;;;;4993848;28;20026;-69
2021/03/15 03:16:10;;;;;;;3.10;2.13;;;7.10;94.30;;;;;;4994456;28;20032;-70
2021/03/15 03:18:38;;;;;;;2.67;2.28;;;7.20;94.60;;;;;;4995410;28;20050;-69
2021/03/15 03:21:06;;;;;;;3.30;2.10;;;7.20;94.40;;;;;;4995948;28;20383;-69
2021/03/15 03:23:37;;;;;;;4.90;2.00;;;7.20;94.30;;;;;;4994187;28;20026;-69
2021/03/15 03:26:06;;;;;;;5.53;2.53;;;7.20;94.30;;;;;;4993996;28;20526;-69
2021/03/15 03:28:32;;;;;;;3.30;2.15;;;7.20;94.30;;;;;;4995435;28;20023;-69
2021/03/15 03:31:04;;;;;;;2.63;2.42;;;7.20;94.40;;;;;;4994304;28;20539;-69
2021/03/15 03:33:30;;;;;;;3.85;2.53;;;7.20;94.40;;;;;;4993366;28;20031;-70
2021/03/15 03:35:55;;;;;;;3.55;2.72;;;7.20;94.40;;;;;;4995544;28;20081;-69
2021/03/15 03:38:21;;;;;;;2.75;2.47;;;7.20;94.40;;;;;;4995277;28;20018;-69
2021/03/15 03:40:47;;;;;;;4.45;2.80;;;7.20;94.50;;;;;;4994921;28;20069;-69
2021/03/15 03:43:12;;;;;;;3.65;3.17;;;7.30;94.50;;;;;;4995126;28;20530;-69
2021/03/15 03:45:38;;;;;;;5.22;3.72;;;7.20;94.50;;;;;;4995396;28;20031;-68
2021/03/15 03:48:04;;;;;;;7.05;3.78;;;7.20;94.50;;;;;;4993587;28;20022;-69
2021/03/15 03:50:34;;;;;;;5.63;3.70;;;7.20;94.50;;;;;;4993639;28;20085;-69
2021/03/15 03:53:16;;;;;;;6.82;3.78;;;7.10;94.50;;;;;;4994857;28;20034;-69
2021/03/15 03:55:44;;;;;;;;;;;7.10;94.90;;;;;;4995091;28;20030;-69
2021/03/15 03:58:13;;;;;;;6.00;4.53;;;7.10;94.70;;;;;;4994785;28;19941;-68
2021/03/15 04:00:39;;;;;;;5.60;4.90;;;7.10;94.70;;;;;;4993573;28;20065;-69
2021/03/15 04:03:13;;;;;;;8.10;5.43;;;7.00;94.80;;;;;;4994949;28;20058;-69
2021/03/15 04:05:42;;;;;;;12.38;4.80;;;7.00;94.80;;;;;;4993701;28;20391;-68
2021/03/15 04:08:13;;;;;;;12.13;10.85;;;7.00;94.90;;;;;;4994423;28;20428;-69
2021/03/15 04:10:40;;;;;;;9.57;5.35;;;7.00;94.90;;;;;;4994935;28;20101;-69
2021/03/15 04:13:15;;;;;;;9.07;5.28;;;7.00;94.90;;;;;;4993583;28;20440;-69
2021/03/15 04:15:45;;;;;;;10.57;5.43;;;7.10;95.00;;;;;;4994138;28;20034;-69
2021/03/15 04:18:16;;;;;;;10.25;5.47;;;7.10;95.00;;;;;;4994394;28;20042;-69
2021/03/15 04:20:44;;;;;;;7.32;4.80;;;7.10;94.90;;;;;;4994852;28;20022;-69
2021/03/15 04:23:14;;;;;;;10.52;5.57;;;7.10;95.00;;;;;;4993713;28;20095;-69
2021/03/15 04:25:43;;;;;;;8.50;5.00;;;7.10;95.00;;;;;;4994625;28;20030;-68
2021/03/15 04:28:09;;;;;;;10.32;5.07;;;7.10;94.90;;;;;;4994531;28;20165;-69
2021/03/15 04:30:38;;;;;;;10.00;5.13;;;7.00;94.90;;;;;;4993989;28;20026;-69
2021/03/15 04:33:05;;;;;;;14.02;5.68;;;7.00;95.00;;;;;;4993160;28;20439;-68
2021/03/15 04:35:34;;;;;;;9.85;5.32;;;7.00;95.00;;;;;;4994106;28;20394;-69
2021/03/15 04:38:03;;;;;;;10.10;5.18;;;7.00;95.00;;;;;;4992372;28;20387;-69
2021/03/15 04:40:30;;;;;;;16.42;10.88;;;7.00;95.00;;;;;;4992668;28;20041;-69
2021/03/15 04:43:00;;;;;;;13.65;5.85;;;7.00;95.00;;;;;;4993577;28;20029;-69
2021/03/15 04:45:43;;;;;;;11.85;5.82;;;7.00;95.00;;;;;;4994063;28;20029;-68
2021/03/15 04:48:11;;;;;;;11.13;6.05;;;7.00;95.10;;;;;;4991267;28;20018;-68
2021/03/15 04:50:38;;;;;;;12.80;5.43;;;7.10;95.00;;;;;;4994155;28;20471;-68
2021/03/15 04:53:04;;;;;;;12.38;5.80;;;7.10;95.00;;;;;;4994108;28;20106;-68
2021/03/15 04:55:31;;;;;;;9.75;4.70;;;7.10;95.00;;;;;;4993148;28;20034;-69
2021/03/15 04:58:01;;;;;;;13.05;5.97;;;7.10;94.90;;;;;;4994145;28;20085;-68
2021/03/15 05:00:28;;;;;;;10.00;5.10;;;7.10;94.90;;;;;;4993762;28;20110;-69
2021/03/15 05:02:54;;;;;;;10.85;5.38;;;7.00;94.90;;;;;;4993293;28;20054;-70
2021/03/15 05:05:22;;;;;;;10.90;5.47;;;7.00;94.90;;;;;;4992719;28;20026;-70
2021/03/15 05:07:50;;;;;;;11.55;4.82;;;6.90;94.90;;;;;;4993986;28;20060;-69
2021/03/15 05:10:18;;;;;;;10.80;5.40;;;6.90;94.90;;;;;;4992971;28;20031;-69
2021/03/15 05:12:45;;;;;;;10.13;6.47;;;6.90;94.80;;;;;;4993666;28;20026;-69
2021/03/15 05:15:12;;;;;;;11.63;5.78;;;6.90;94.80;;;;;;4993473;28;20035;-69
2021/03/15 05:17:39;;;;;;;7.25;4.22;;;6.90;94.80;;;;;;4991511;28;20042;-69
2021/03/15 05:20:14;;;;;;;10.20;5.07;;;6.90;94.90;;;;;;4992425;28;20038;-69
2021/03/15 05:22:42;;;;;;;9.63;5.38;;;6.90;94.80;;;;;;4992184;28;20502;-69
2021/03/15 05:25:10;;;;;;;7.53;4.60;;;7.00;94.90;;;;;;4992931;28;20032;-69
2021/03/15 05:27:36;;;;;;;7.90;5.28;;;7.00;94.80;;;;;;4993501;28;20014;-69
2021/03/15 05:30:06;;;;;;;10.38;5.32;;;7.00;94.70;;;;;;4993473;28;20434;-69
2021/03/15 05:32:35;;;;;;;8.68;5.18;;;6.90;95.00;;;;;;4991210;28;20011;-69
2021/03/15 05:35:03;;;;;;;9.38;5.07;;;7.00;94.80;;;;;;4993407;28;20443;-69
2021/03/15 05:37:29;;;;;;;9.85;5.50;;;7.00;94.90;;;;;;4991120;28;20117;-69
2021/03/15 05:39:54;;;;;;;10.85;5.70;;;7.00;94.80;;;;;;4992656;28;20109;-69
2021/03/15 05:42:28;;;;;;;10.52;5.20;;;7.00;94.80;;;;;;4992823;28;20041;-69
2021/03/15 05:45:06;;;;;;;13.82;5.18;;;7.10;94.80;;;;;;4992532;28;20422;-69
2021/03/15 05:48:12;;;;;;;11.15;5.55;;;7.10;95.10;;;;;;4992894;28;20030;-68
2021/03/15 05:50:54;;;;;;;14.68;5.55;;;7.10;94.80;;;;;;4993209;28;20173;-68
2021/03/15 05:53:40;;;;;;;;;;;7.10;94.70;;;;;;4992655;28;20061;-69
2021/03/15 05:56:35;;;;;;;14.40;4.70;;;7.10;94.70;;;;;;4972199;28;19968;-69
2021/03/15 05:59:16;;;;;;;13.32;5.15;;;6.90;94.70;;;;;;4972996;28;20035;-69
2021/03/15 06:02:04;;;;;;;11.65;4.57;;;6.90;94.70;;;;;;4973495;28;20027;-69
2021/03/15 06:04:32;;;;;;;13.43;5.07;;;6.80;94.80;;;;;;4973286;28;20498;-69
2021/03/15 06:07:02;;;;;;;12.05;5.50;;;6.70;94.90;;;;;;4972832;28;20041;-68
2021/03/15 06:09:30;;;;;;;18.25;5.80;;;6.60;95.00;;;;;;4973152;28;20023;-68
2021/03/15 06:12:04;;;;;;;12.80;5.20;;;6.70;95.20;;;;;;4973357;28;20030;-69
2021/03/15 06:14:30;;;;;;;14.00;4.90;;;6.70;95.10;;;;;;4990681;28;20026;-68
2021/03/15 06:16:56;;;;;;;11.43;5.70;;;6.70;95.10;;;;;;4995314;28;20038;-70
2021/03/15 06:19:24;;;;;;;8.48;5.07;;;6.70;95.10;;;;;;4998693;28;20116;-70
2021/03/15 06:21:55;;;;;;;10.43;5.18;;;6.80;95.00;;;;;;4998394;28;20026;-70
2021/03/15 06:24:21;;;;;;;10.55;4.35;;;6.80;95.00;;;;;;4999056;28;20041;-70
2021/03/15 06:26:47;;;;;;;12.05;4.93;;;6.90;95.00;;;;;;4997551;28;20033;-68
2021/03/15 06:29:13;;;;;;;20.05;11.95;;;6.90;94.90;;;;;;4991943;28;20026;-69
2021/03/15 06:31:43;;;;;;;11.93;7.05;;;6.90;94.90;;;;;;4994295;28;20143;-69
2021/03/15 06:34:14;;;;;;;10.32;4.95;;;7.00;94.80;;;;;;4989986;28;20412;-69
2021/03/15 06:36:40;;;;;;;12.52;5.40;;;7.00;94.70;;;;;;4997953;28;20030;-69
2021/03/15 06:39:09;;;;;;;9.38;5.22;;;7.00;94.70;;;;;;4996550;28;20093;-68
2021/03/15 06:41:35;;;;;;;10.77;4.97;;;7.10;94.70;;;;;;4996315;28;20018;-69
2021/03/15 06:44:01;;;;;;;9.80;4.72;;;7.20;94.60;;;;;;4998263;28;20037;-68
2021/03/15 06:46:26;;;;;;;10.80;5.03;;;7.20;94.50;;;;;;4998552;28;20387;-69
2021/03/15 06:48:52;;;;;;;17.08;5.07;;;7.30;94.50;;;;;;4998421;28;20072;-70
2021/03/15 06:51:17;;;;;;;10.70;4.60;;;7.30;94.40;;;;;;4996746;28;20034;-70
2021/03/15 06:53:43;;;;;;;15.13;4.95;;;7.40;94.30;;;;;;4996663;28;20049;-70
2021/03/15 06:56:17;;;;;;;10.43;4.13;;;7.40;94.30;;;;;;4998091;28;20085;-70
2021/03/15 06:58:51;;;;;;;10.00;4.63;;;7.40;94.20;;;;;;4990893;28;20574;-70
2021/03/15 07:01:27;;;;;;;65.57;10.10;;;7.50;94.20;;;;;;4981418;28;20055;-69
2021/03/15 07:04:08;;;;;;;409.77;37.83;;;7.60;94.30;;;;;;4983421;28;20019;-72
2021/03/15 07:06:41;;;;;;;15.55;4.63;;;7.60;94.30;;;;;;4998741;28;20441;-70
2021/03/15 07:09:15;;;;;;;22.35;5.70;;;7.60;94.30;;;;;;4998110;28;20050;-70
2021/03/15 07:11:41;;;;;;;16.52;5.82;;;7.60;94.20;;;;;;4998669;28;20026;-70
2021/03/15 07:14:24;;;;;;;15.93;6.80;;;7.60;94.30;;;;;;4998572;28;20105;-73
2021/03/15 07:16:57;;;;;;;19.90;4.80;;;7.70;94.20;;;;;;4997728;28;20121;-71
2021/03/15 07:19:23;;;;;;;13.25;4.47;;;7.70;94.10;;;;;;4998302;28;20030;-71
2021/03/15 07:21:49;;;;;;;14.75;3.65;;;7.70;94.00;;;;;;4998552;28;20026;-74
2021/03/15 07:24:16;;;;;;;13.52;5.57;;;7.80;93.70;;;;;;4997321;28;20414;-71
2021/03/15 07:26:45;;;;;;;15.70;5.55;;;7.80;93.70;;;;;;4998644;28;20023;-75
2021/03/15 07:29:14;;;;;;;37.92;5.50;;;7.90;93.60;;;;;;4994970;28;20054;-72
2021/03/15 07:31:43;;;;;;;17.67;7.28;;;7.90;93.50;;;;;;4994364;28;20027;-74
2021/03/15 07:34:12;;;;;;;18.88;5.97;;;8.00;93.30;;;;;;4994754;28;20038;-74
2021/03/15 07:36:55;;;;;;;16.23;4.00;;;7.90;92.80;;;;;;5009646;28;20022;-76
2021/03/15 07:39:22;;;;;;;13.82;3.58;;;7.90;92.90;;;;;;4994194;28;20046;-77
2021/03/15 07:41:50;;;;;;;14.32;3.97;;;8.00;92.80;;;;;;4994121;28;20061;-79
2021/03/15 07:44:28;;;;;;;14.57;3.30;;;8.00;92.70;;;;;;4992280;28;20030;-83
2021/03/15 07:47:02;;;;;;;19.63;3.90;;;8.10;92.60;;;;;;4992889;28;20060;-80
2021/03/15 07:49:42;;;;;;;14.95;3.60;;;8.10;92.40;;;;;;4994086;28;20830;-81
2021/03/15 07:52:10;;;;;;;16.80;3.60;;;8.10;92.30;;;;;;5009616;28;20367;-73
2021/03/15 07:54:41;;;;;;;14.00;4.80;;;8.20;92.40;;;;;;5003888;28;20459;-75
2021/03/15 07:57:20;;;;;;;11.20;5.03;;;8.20;92.10;;;;;;4994467;28;20375;-75
2021/03/15 07:59:50;;;;;;;16.88;3.88;;;8.30;92.00;;;;;;4993614;28;20062;-76
2021/03/15 08:02:22;;;;;;;12.25;3.45;;;8.40;92.20;;;;;;4993846;28;20018;-76
2021/03/15 08:04:48;;;;;;;;;;;8.50;91.90;;;;;;4994932;28;20026;-78
2021/03/15 08:07:15;;;;;;;37.38;12.93;;;8.60;91.80;;;;;;4993661;28;19912;-77
2021/03/15 08:09:43;;;;;;;14.93;3.50;;;8.60;91.20;;;;;;4992541;28;20033;-78
2021/03/15 08:12:10;;;;;;;17.55;3.95;;;8.60;91.00;;;;;;4993304;28;20026;-76
2021/03/15 08:14:42;;;;;;;16.80;2.95;;;8.70;90.90;;;;;;4994418;28;20022;-79
2021/03/15 08:17:10;;;;;;;16.77;5.80;;;8.70;90.60;;;;;;4993048;28;20058;-73
2021/03/15 08:19:37;;;;;;;15.73;3.28;;;8.70;90.60;;;;;;4993365;28;20034;-70
2021/03/15 08:22:04;;;;;;;11.13;2.72;;;8.50;91.00;;;;;;4993085;28;20441;-70
2021/03/15 08:24:35;;;;;;;12.23;2.67;;;8.50;91.30;;;;;;4994059;28;20022;-72
2021/03/15 08:27:02;;;;;;;15.98;3.10;;;8.50;91.00;;;;;;4996610;28;20041;-70
2021/03/15 08:29:32;;;;;;;14.27;3.67;;;8.50;90.70;;;;;;5012144;28;20026;-71
2021/03/15 08:31:58;;;;;;;22.83;8.13;;;8.40;90.60;;;;;;4996049;28;20088;-72
2021/03/15 08:34:24;;;;;;;16.35;3.25;;;8.30;90.50;;;;;;4993285;28;20478;-69
2021/03/15 08:36:50;;;;;;;11.20;2.75;;;8.20;90.20;;;;;;4993153;28;20106;-72
2021/03/15 08:39:37;;;;;;;29.25;12.50;;;8.20;90.40;;;;;;4992327;28;20102;-74
2021/03/15 08:42:06;;;;;;;15.52;5.15;;;8.30;90.00;;;;;;4988080;28;20057;-70
2021/03/15 08:44:43;;;;;;;17.20;3.58;;;8.40;88.40;;;;;;4992907;28;20030;-72
2021/03/15 08:47:10;;;;;;;15.80;2.65;;;8.60;88.20;;;;;;4992701;28;20022;-73
2021/03/15 08:49:38;;;;;;;11.52;4.22;;;8.80;87.90;;;;;;4993163;28;20034;-72
2021/03/15 08:52:04;;;;;;;14.60;3.15;;;8.90;86.20;;;;;;4993423;28;20023;-72
2021/03/15 08:54:39;;;;;;;6.45;2.85;;;8.80;84.40;;;;;;4991804;28;20481;-74
2021/03/15 08:57:06;;;;;;;9.93;2.38;;;8.70;84.50;;;;;;4994179;28;20018;-70
2021/03/15 08:59:33;;;;;;;15.48;5.20;;;8.70;82.70;;;;;;4992287;28;20072;-72
2021/03/15 09:02:03;;;;;;;10.55;2.67;;;8.70;82.40;;;;;;4992427;28;20105;-73
2021/03/15 09:04:30;;;;;;;9.75;4.35;;;8.80;81.90;;;;;;4992887;28;20038;-75
2021/03/15 09:06:56;;;;;;;13.23;2.45;;;8.90;81.30;;;;;;4991794;28;20025;-69
2021/03/15 09:09:40;;;;;;;9.57;2.33;;;9.00;80.20;;;;;;4991658;28;20030;-69
2021/03/15 09:12:58;;;;;;;20.23;4.80;;;9.10;79.80;;;;;;4993163;28;20161;-69
2021/03/15 09:15:34;;;;;;;12.93;3.17;;;9.10;78.70;;;;;;4983242;28;20039;-67
2021/03/15 09:17:59;;;;;;;8.05;2.13;;;9.20;78.60;;;;;;4989105;28;20097;-66
2021/03/15 09:20:35;;;;;;;7.00;2.28;;;9.30;78.10;;;;;;4989914;28;20467;-72
2021/03/15 09:23:32;;;;;;;22.50;7.88;;;9.40;78.30;;;;;;4990506;28;20030;-68
2021/03/15 09:26:30;;;;;;;9.07;2.90;;;9.50;77.60;;;;;;4992335;28;20038;-70
2021/03/15 09:28:57;;;;;;;11.75;2.10;;;9.30;77.10;;;;;;4991388;28;20030;-75
2021/03/15 09:31:26;;;;;;;10.15;2.30;;;9.20;78.60;;;;;;4992165;28;20030;-75
2021/03/15 09:33:51;;;;;;;8.63;2.75;;;9.20;79.30;;;;;;4991140;28;20483;-74
2021/03/15 09:36:30;;;;;;;9.93;2.28;;;9.30;79.40;;;;;;4991450;28;20092;-72
2021/03/15 09:38:57;;;;;;;8.80;2.88;;;9.20;78.30;;;;;;4991993;28;20046;-77
2021/03/15 09:41:25;;;;;;;8.18;2.75;;;9.10;78.70;;;;;;4990005;28;20027;-78
2021/03/15 09:43:53;;;;;;;12.88;5.75;;;9.20;79.10;;;;;;4990569;28;20050;-75
2021/03/15 09:46:28;;;;;;;9.80;4.78;;;9.40;78.20;;;;;;4989910;28;20062;-77
2021/03/15 09:48:54;;;;;;;11.05;2.50;;;9.50;77.20;;;;;;4990043;28;20134;-75
2021/03/15 09:51:27;;;;;;;15.70;7.95;;;9.60;77.00;;;;;;4992067;28;20030;-74
2021/03/15 09:53:54;;;;;;;11.88;1.83;;;9.70;76.70;;;;;;4990956;28;20030;-76
2021/03/15 09:56:20;;;;;;;8.50;2.25;;;9.80;76.80;;;;;;4990870;28;20061;-74
2021/03/15 09:58:45;;;;;;;9.40;2.20;;;9.70;76.80;;;;;;4992554;28;20049;-74
2021/03/15 10:01:12;;;;;;;12.07;2.67;;;9.80;77.30;;;;;;4992232;28;20041;-76
2021/03/15 10:03:37;;;;;;;9.00;2.33;;;9.80;77.20;;;;;;4990387;28;20050;-73
2021/03/15 10:06:03;;;;;;;15.75;4.25;;;9.70;75.80;;;;;;4992478;28;20058;-73
2021/03/15 10:08:29;;;;;;;9.75;2.85;;;9.70;76.40;;;;;;5000064;28;20032;-73
2021/03/15 10:10:57;;;;;;;6.47;1.92;;;9.60;77.00;;;;;;5011648;28;20033;-73
2021/03/15 10:13:23;;;;;;;8.65;3.28;;;9.50;77.10;;;;;;5005638;28;20022;-75
2021/03/15 10:15:49;;;;;;;7.55;1.80;;;9.60;78.30;;;;;;4991675;28;20454;-75
2021/03/15 10:18:17;;;;;;;15.18;2.92;;;9.60;78.10;;;;;;4989517;28;20500;-75
2021/03/15 10:20:43;;;;;;;8.85;2.40;;;9.70;78.60;;;;;;4992286;28;20026;-75
2021/03/15 10:23:20;;;;;;;14.30;2.63;;;9.70;78.80;;;;;;4991850;28;20105;-74
2021/03/15 10:26:01;;;;;;;14.68;4.43;;;9.80;78.80;;;;;;4990303;28;20027;-74
2021/03/15 10:28:28;;;;;;;12.15;2.42;;;9.80;77.10;;;;;;4990495;28;20026;-77
2021/03/15 10:30:54;;;;;;;6.82;2.20;;;9.70;76.60;;;;;;4989447;28;20019;-74
2021/03/15 10:33:21;;;;;;;13.93;5.18;;;9.80;77.10;;;;;;4989550;28;20053;-71
2021/03/15 10:35:49;;;;;;;9.85;2.42;;;9.90;76.20;;;;;;4991303;28;20041;-75
2021/03/15 10:38:15;;;;;;;8.98;2.03;;;10.00;76.40;;;;;;4991474;28;20037;-69
2021/03/15 10:40:41;;;;;;;17.00;5.63;;;10.10;76.50;;;;;;4990300;28;20022;-73
2021/03/15 10:43:08;;;;;;;12.30;2.28;;;10.20;77.10;;;;;;4990952;28;20037;-72
2021/03/15 10:45:34;;;;;;;7.55;1.77;;;10.20;77.70;;;;;;4991088;28;20033;-69
2021/03/15 10:48:06;;;;;;;12.57;3.55;;;10.30;77.00;;;;;;4991914;28;20379;-67
2021/03/15 10:50:34;;;;;;;12.25;3.67;;;10.40;77.30;;;;;;4991777;28;20035;-69
2021/03/15 10:53:17;;;;;;;9.20;2.10;;;10.30;77.40;;;;;;4990127;28;20027;-68
2021/03/15 10:55:44;;;;;;;14.10;3.03;;;10.30;77.10;;;;;;4992074;28;20080;-68
2021/03/15 10:58:14;;;;;;;13.95;4.40;;;10.30;77.30;;;;;;4990977;28;20022;-67
2021/03/15 11:00:42;;;;;;;11.73;2.35;;;10.30;77.70;;;;;;4991707;28;20053;-69
2021/03/15 11:03:19;;;;;;;12.65;2.35;;;10.20;78.70;;;;;;4992600;28;20027;-67
2021/03/15 11:05:44;;;;;;;11.48;2.47;;;10.10;78.70;;;;;;4994966;28;20030;-80
2021/03/15 11:08:20;;;;;;;11.00;2.80;;;10.20;79.00;;;;;;5000417;28;20049;-75
2021/03/15 11:10:50;;;;;;;12.18;2.35;;;10.30;78.10;;;;;;4976126;28;20023;-77
2021/03/15 11:13:20;;;;;;;9.82;2.42;;;10.30;77.70;;;;;;4991645;28;20053;-79
2021/03/15 11:15:46;;;;;;;8.60;2.58;;;10.30;76.80;;;;;;4995170;28;20034;-74
2021/03/15 11:18:16;;;;;;;7.57;2.50;;;10.40;76.80;;;;;;4993184;28;20108;-75
2021/03/15 11:20:58;;;;;;;15.40;5.97;;;10.50;75.70;;;;;;4995050;28;20030;-70
2021/03/15 11:23:39;;;;;;;15.02;6.72;;;10.40;74.00;;;;;;4992143;28;20113;-76
2021/03/15 11:26:10;;;;;;;5.28;2.15;;;10.40;73.60;;;;;;4994359;28;20041;-70
2021/03/15 11:28:43;;;;;;;10.57;4.47;;;10.20;74.70;;;;;;4992900;28;20109;-82
2021/03/15 11:31:21;;;;;;;103.35;32.85;;;10.10;77.60;;;;;;4989912;28;20336;-73
2021/03/15 11:33:55;;;;;;;5.28;2.03;;;9.90;79.70;;;;;;4957480;28;20023;-72
2021/03/15 11:36:23;;;;;;;18.95;9.43;;;9.40;82.70;;;;;;4974465;28;20466;-69
2021/03/15 11:39:00;;;;;;;10.80;2.30;;;9.10;85.40;;;;;;4973668;28;20502;-69
2021/03/15 11:41:31;;;;;;;11.25;2.17;;;8.80;87.30;;;;;;4974227;28;20027;-70
2021/03/15 11:43:57;;;;;;;12.30;2.88;;;8.70;89.20;;;;;;4990604;28;20049;-69
2021/03/15 11:46:22;;;;;;;11.98;3.20;;;8.60;89.20;;;;;;4993632;28;20065;-69
2021/03/15 11:48:48;;;;;;;11.90;2.47;;;8.70;89.60;;;;;;4994147;28;20026;-71
2021/03/15 11:51:16;;;;;;;10.70;2.60;;;8.90;90.30;;;;;;4993927;28;20023;-69
2021/03/15 11:53:44;;;;;;;11.93;3.17;;;9.10;90.00;;;;;;4994780;28;20106;-68
2021/03/15 11:56:11;;;;;;;12.35;2.67;;;9.30;90.10;;;;;;4993847;28;20034;-68
2021/03/15 11:58:37;;;;;;;16.63;4.68;;;9.40;88.30;;;;;;4993187;28;20157;-69
2021/03/15 12:01:03;;;;;;;12.55;4.32;;;9.30;88.40;;;;;;4994438;28;20041;-72
2021/03/15 12:03:29;;;;;;;14.50;2.78;;;9.30;89.70;;;;;;4993704;28;20113;-67
2021/03/15 12:05:55;;;;;;;11.95;2.80;;;9.30;89.60;;;;;;4994546;28;20111;-73
2021/03/15 12:08:21;;;;;;;18.70;5.85;;;9.40;90.20;;;;;;4993952;28;20034;-72
2021/03/15 12:10:46;;;;;;;19.80;7.47;;;9.40;90.00;;;;;;4993536;28;20038;-69
2021/03/15 12:13:12;;;;;;;19.52;5.50;;;9.40;89.20;;;;;;4992520;28;20072;-71
2021/03/15 12:15:38;;;;;;;16.70;3.65;;;9.30;89.00;;;;;;4994029;28;20035;-75
2021/03/15 12:18:05;;;;;;;12.70;2.92;;;9.10;88.20;;;;;;4993418;28;20054;-70
2021/03/15 12:20:31;;;;;;;12.98;2.92;;;9.10;89.30;;;;;;4994480;28;20030;-70
2021/03/15 12:22:57;;;;;;;15.88;3.05;;;9.10;89.00;;;;;;4993856;28;20195;-69
2021/03/15 12:25:25;;;;;;;19.42;7.63;;;9.20;88.60;;;;;;4993461;28;20117;-70
2021/03/15 12:27:55;;;;;;;9.23;2.20;;;9.30;87.10;;;;;;4994338;28;20073;-69
2021/03/15 12:30:20;;;;;;;13.60;4.35;;;9.10;87.40;;;;;;4993520;28;20486;-67
2021/03/15 12:32:47;;;;;;;10.48;3.83;;;9.00;87.20;;;;;;4994284;28;20026;-68
2021/03/15 12:35:13;;;;;;;10.88;4.22;;;8.90;87.70;;;;;;4991355;28;20080;-70
2021/03/15 12:37:39;;;;;;;11.32;2.33;;;8.90;88.10;;;;;;4992807;28;20105;-70
2021/03/15 12:40:05;;;;;;;15.18;4.05;;;8.90;87.60;;;;;;4994040;28;20114;-69
2021/03/15 12:42:34;;;;;;;12.90;4.28;;;9.10;87.70;;;;;;4992099;28;20049;-70
2021/03/15 12:45:00;;;;;;;11.20;2.92;;;9.40;86.90;;;;;;4993220;28;20077;-74
2021/03/15 12:47:26;;;;;;;12.70;2.85;;;9.60;85.20;;;;;;4992781;28;20026;-72
2021/03/15 12:49:51;;;;;;;13.93;3.80;;;9.70;85.20;;;;;;4991524;28;20026;-74
2021/03/15 12:52:20;;;;;;;7.68;2.67;;;9.70;86.00;;;;;;4992945;28;20037;-68
2021/03/15 12:54:45;;;;;;;11.60;4.18;;;9.60;86.10;;;;;;4992484;28;20034;-66
2021/03/15 12:57:13;;;;;;;10.13;2.15;;;9.40;87.30;;;;;;4992231;28;20049;-67
2021/03/15 12:59:39;;;;;;;10.50;2.30;;;9.30;86.40;;;;;;4993032;28;20027;-66
2021/03/15 13:02:04;;;;;;;11.45;3.75;;;9.10;87.00;;;;;;4992601;28;20081;-65
2021/03/15 13:04:30;;;;;;;23.98;6.97;;;9.10;87.30;;;;;;4992829;28;20493;-67